Time;durP1;ratioP1;P1;durP2;ratioP2;P2;SDS_P1;SDS_P2;PMS_P1;PMS_P2;Temp;Humidity;BMP_temperature;BMP_pressure;BME280_temperature;BME280_humidity;BME280_pressure;Samples;Min_cycle;Max_cycle;Signal;HPM_P1;HPM_P2
2022/08/20 00:00:45;;;;;;;16.82;4.25;;;;;;;22.17;70.49;100772.84;1788065;79;26654;-52
2022/08/20 00:03:20;;;;;;;16.95;4.90;;;;;;;22.16;70.61;100765.67;1787765;79;25739;-56
2022/08/20 00:05:52;;;;;;;15.00;4.42;;;;;;;22.17;70.76;100758.28;1787562;78;27650;-54
2022/08/20 00:08:21;;;;;;;15.18;4.97;;;;;;;22.13;70.54;100763.89;1787495;79;26130;-55
2022/08/20 00:10:51;;;;;;;12.78;4.35;;;;;;;22.13;70.73;100767.45;1787670;79;25838;-55
2022/08/20 00:13:23;;;;;;;12.45;4.47;;;;;;;22.10;70.57;100767.05;1787907;79;26800;-55
2022/08/20 00:15:50;;;;;;;18.00;5.20;;;;;;;22.04;70.61;100761.88;1786793;80;25954;-55
2022/08/20 00:18:18;;;;;;;13.72;4.55;;;;;;;22.01;70.69;100763.16;1788077;78;27444;-55
2022/08/20 00:20:48;;;;;;;21.20;5.40;;;;;;;22.00;70.59;100762.02;1787655;78;26470;-55
2022/08/20 00:23:17;;;;;;;20.17;5.45;;;;;;;21.96;70.99;100759.37;1769545;79;25928;-55
2022/08/20 00:25:45;;;;;;;25.20;5.35;;;;;;;21.92;70.94;100763.06;1770041;81;25772;-54
2022/08/20 00:28:13;;;;;;;21.87;4.90;;;;;;;21.88;71.25;100765.38;1770041;81;26536;-55
2022/08/20 00:30:43;;;;;;;29.23;5.15;;;;;;;21.87;71.30;100760.95;1770026;81;28183;-54
2022/08/20 00:33:15;;;;;;;16.30;4.35;;;;;;;21.87;71.23;100762.33;1769946;81;26395;-56
2022/08/20 00:35:47;;;;;;;21.80;6.03;;;;;;;21.88;71.61;100763.16;1770151;81;25878;-56
2022/08/20 00:38:15;;;;;;;17.42;5.05;;;;;;;21.83;71.47;100764.33;1770217;81;26712;-56
2022/08/20 00:40:47;;;;;;;23.12;4.90;;;;;;;21.80;71.32;100755.16;1770144;81;25834;-54
2022/08/20 00:43:29;;;;;;;19.05;5.60;;;;;;;21.76;72.03;100756.11;1770415;81;27403;-55
2022/08/20 00:45:57;;;;;;;22.87;4.62;;;;;;;21.67;71.67;100751.39;1770237;81;25995;-55
2022/08/20 00:48:30;;;;;;;12.58;4.12;;;;;;;21.65;72.26;100748.55;1770385;81;25730;-54
2022/08/20 00:51:02;;;;;;;17.57;5.30;;;;;;;21.55;72.08;100741.56;1770229;81;26459;-56
2022/08/20 00:53:29;;;;;;;25.20;5.20;;;;;;;21.54;72.15;100741.75;1769401;80;25867;-55
2022/08/20 00:55:57;;;;;;;14.28;5.03;;;;;;;21.56;72.33;100736.92;1769933;81;27474;-55
2022/08/20 00:58:24;;;;;;;16.90;5.05;;;;;;;21.55;72.31;100736.60;1770051;81;25766;-55
2022/08/20 01:00:51;;;;;;;19.82;5.20;;;;;;;21.54;72.23;100736.28;1770291;80;25786;-55
2022/08/20 01:03:19;;;;;;;18.42;5.42;;;;;;;21.56;72.27;100735.02;1774217;79;25750;-55
2022/08/20 01:05:49;;;;;;;26.07;4.83;;;;;;;21.58;72.15;100732.12;1772870;80;25964;-55
2022/08/20 01:08:20;;;;;;;15.55;4.72;;;;;;;21.57;72.32;100738.07;1772938;80;28410;-55
2022/08/20 01:10:52;;;;;;;13.10;4.58;;;;;;;21.52;72.49;100732.91;1772870;80;25781;-54
2022/08/20 01:13:22;;;;;;;13.78;4.92;;;;;;;21.46;72.17;100733.24;1772848;80;25742;-54
2022/08/20 01:15:52;;;;;;;24.55;4.70;;;;;;;21.46;72.32;100733.24;1772653;80;26002;-55
2022/08/20 01:18:23;;;;;;;7.53;3.62;;;;;;;21.47;72.47;100726.69;1772997;80;25720;-55
2022/08/20 01:20:58;;;;;;;16.17;5.00;;;;;;;21.48;72.34;100733.85;1810233;79;27455;-55
2022/08/20 01:23:59;;;;;;;15.30;4.75;;;;;;;21.49;72.42;100733.34;1804779;77;25703;-54
2022/08/20 01:26:40;;;;;;;12.28;4.15;;;;;;;21.40;72.51;100732.69;1794990;79;25798;-54
2022/08/20 01:29:14;;;;;;;19.62;5.00;;;;;;;21.38;72.52;100732.08;1795045;78;25930;-54
2022/08/20 01:31:43;;;;;;;20.57;5.05;;;;;;;21.38;72.70;100731.55;1795109;78;25783;-54
2022/08/20 01:34:15;;;;;;;22.02;5.45;;;;;;;21.39;72.57;100722.80;1800891;78;27565;-53
2022/08/20 01:36:47;;;;;;;21.05;5.08;;;;;;;21.40;72.77;100719.01;1806560;78;26132;-52
2022/08/20 01:39:19;;;;;;;26.85;4.83;;;;;;;21.36;72.56;100719.95;1806271;78;25791;-54
2022/08/20 01:42:19;;;;;;;16.77;4.72;;;;;;;21.31;72.71;100713.42;1806494;78;26873;-54
2022/08/20 01:44:48;;;;;;;14.45;4.90;;;;;;;21.19;72.76;100711.33;1806408;79;25730;-54
2022/08/20 01:47:26;;;;;;;15.05;4.90;;;;;;;21.18;73.04;100723.83;1806497;78;27588;-52
2022/08/20 01:49:58;;;;;;;20.30;4.87;;;;;;;21.17;72.98;100718.89;1805544;78;25812;-54
2022/08/20 01:52:48;;;;;;;26.57;5.40;;;;;;;21.16;73.31;100724.05;1806698;79;25775;-54
2022/08/20 01:55:15;;;;;;;18.32;4.90;;;;;;;21.17;73.41;100720.77;1796956;78;25782;-53
2022/08/20 01:57:44;;;;;;;26.17;6.15;;;;;;;21.19;73.32;100722.78;1794992;78;25660;-55
2022/08/20 02:00:15;;;;;;;13.08;4.78;;;;;;;21.20;73.46;100721.19;1795018;79;27705;-54
2022/08/20 02:02:42;;;;;;;22.85;4.83;;;;;;;21.18;73.21;100724.69;1794912;78;25759;-53
2022/08/20 02:05:10;;;;;;;11.25;4.62;;;;;;;21.16;73.71;100721.84;1794774;78;25794;-55
2022/08/20 02:07:38;;;;;;;12.43;4.45;;;;;;;21.11;73.41;100721.10;1795079;79;25990;-53
2022/08/20 02:10:10;;;;;;;16.65;4.47;;;;;;;21.09;73.99;100721.83;1795357;79;25703;-55
2022/08/20 02:12:38;;;;;;;16.97;6.00;;;;;;;21.02;73.56;100718.23;1795077;78;27428;-54
2022/08/20 02:15:09;;;;;;;12.07;4.55;;;;;;;21.03;73.75;100725.37;1794765;78;25514;-54
2022/08/20 02:17:37;;;;;;;32.38;5.08;;;;;;;21.03;73.75;100719.39;1795149;79;25527;-56
2022/08/20 02:20:10;;;;;;;28.40;5.40;;;;;;;21.06;73.76;100718.98;1801674;78;26784;-55
2022/08/20 02:22:46;;;;;;;14.03;4.40;;;;;;;21.06;73.64;100724.45;1771547;79;26192;-55
2022/08/20 02:25:15;;;;;;;16.75;4.70;;;;;;;21.04;73.97;100724.32;1771048;80;27486;-55
2022/08/20 02:27:47;;;;;;;16.52;4.97;;;;;;;21.00;73.63;100729.91;1771438;80;25720;-55
2022/08/20 02:30:25;;;;;;;16.90;5.72;;;;;;;20.99;73.70;100732.31;1770999;81;25749;-55
2022/08/20 02:32:51;;;;;;;22.15;4.87;;;;;;;21.00;73.68;100734.00;1753595;81;25995;-55
2022/08/20 02:35:19;;;;;;;10.88;4.60;;;;;;;21.00;73.63;100729.91;1766422;81;25727;-55
2022/08/20 02:37:46;;;;;;;17.23;4.50;;;;;;;21.00;73.76;100723.89;1766568;81;27607;-55
2022/08/20 02:40:17;;;;;;;14.07;3.83;;;;;;;20.99;73.43;100728.21;1766293;81;26433;-54
2022/08/20 02:42:45;;;;;;;26.87;5.22;;;;;;;20.94;73.36;100726.92;1771118;81;25729;-54
2022/08/20 02:45:16;;;;;;;17.65;4.97;;;;;;;20.94;73.53;100728.83;1771139;80;25874;-54
2022/08/20 02:47:45;;;;;;;16.50;4.08;;;;;;;20.93;73.53;100729.88;1771220;81;25736;-55
2022/08/20 02:50:16;;;;;;;15.40;4.20;;;;;;;20.86;74.14;100725.75;1770955;81;27677;-55
2022/08/20 02:52:44;;;;;;;17.45;4.58;;;;;;;20.77;73.71;100728.34;1771468;80;25834;-55
2022/08/20 02:55:14;;;;;;;12.78;5.00;;;;;;;20.70;73.67;100728.31;1771053;81;25676;-52
2022/08/20 02:57:41;;;;;;;24.50;4.62;;;;;;;20.66;73.92;100736.59;1771319;80;25867;-54
2022/08/20 03:00:14;;;;;;;13.80;4.83;;;;;;;20.67;74.13;100736.91;1771235;81;25864;-54
2022/08/20 03:02:41;;;;;;;17.17;4.53;;;;;;;20.68;74.18;100739.11;1771826;80;27603;-55
2022/08/20 03:05:09;;;;;;;16.77;5.08;;;;;;;20.71;74.27;100746.38;1771251;81;25632;-55
2022/08/20 03:07:49;;;;;;;21.50;5.37;;;;;;;20.74;74.30;100753.38;1771652;81;25763;-55
2022/08/20 03:10:16;;;;;;;15.55;4.80;;;;;;;20.78;74.34;100752.77;1771147;80;25840;-54
2022/08/20 03:12:43;;;;;;;20.25;5.05;;;;;;;20.81;74.26;100752.88;1771370;81;25711;-55
2022/08/20 03:15:11;;;;;;;15.90;5.17;;;;;;;20.84;74.29;100742.05;1771098;81;27626;-55
2022/08/20 03:17:38;;;;;;;31.80;5.47;;;;;;;20.86;74.12;100746.25;1771230;81;25732;-54
2022/08/20 03:20:08;;;;;;;22.02;5.47;;;;;;;20.85;73.68;100747.30;1754837;81;25776;-54
2022/08/20 03:22:36;;;;;;;16.48;5.42;;;;;;;20.80;73.87;100742.98;1754957;80;25887;-55
2022/08/20 03:25:06;;;;;;;19.40;4.80;;;;;;;20.83;73.83;100746.69;1771621;80;25724;-54
2022/08/20 03:27:33;;;;;;;19.60;4.60;;;;;;;20.80;74.14;100749.81;1773145;80;27433;-56
2022/08/20 03:30:00;;;;;;;17.90;4.55;;;;;;;20.77;73.95;100743.38;1772779;80;25727;-54
2022/08/20 03:32:27;;;;;;;17.57;5.53;;;;;;;20.74;74.32;100739.71;1773079;80;25730;-54
2022/08/20 03:34:54;;;;;;;19.95;5.58;;;;;;;20.64;74.15;100739.53;1772945;80;25800;-55
2022/08/20 03:37:21;;;;;;;14.83;5.37;;;;;;;20.57;74.62;100740.03;1772955;80;25716;-54
2022/08/20 03:39:48;;;;;;;10.18;5.47;;;;;;;20.57;74.70;100748.23;1773071;80;27454;-54
2022/08/20 03:42:15;;;;;;;14.58;5.62;;;;;;;20.62;74.80;100750.33;1773142;80;26082;-53
2022/08/20 03:44:42;;;;;;;15.50;5.80;;;;;;;20.67;74.89;100747.84;1772793;80;25703;-54
2022/08/20 03:47:09;;;;;;;21.70;5.87;;;;;;;20.73;74.83;100757.12;1773002;80;25840;-53
2022/08/20 03:49:36;;;;;;;17.82;6.10;;;;;;;20.68;74.17;100763.70;1772969;80;26043;-54
2022/08/20 03:52:05;;;;;;;16.95;6.53;;;;;;;20.65;74.81;100762.23;1772999;80;27430;-54
2022/08/20 03:54:32;;;;;;;17.35;5.28;;;;;;;20.72;75.27;100760.36;1763775;80;25791;-56
2022/08/20 03:57:01;;;;;;;15.60;5.40;;;;;;;20.76;75.35;100753.98;1756070;81;25463;-54
2022/08/20 03:59:34;;;;;;;13.65;4.92;;;;;;;20.73;75.98;100755.75;1756469;81;25929;-54
2022/08/20 04:02:00;;;;;;;16.27;5.45;;;;;;;20.70;76.50;100760.25;1755249;80;26108;-54
2022/08/20 04:04:26;;;;;;;18.95;4.90;;;;;;;20.59;76.49;100759.78;1756020;81;27027;-55
2022/08/20 04:06:54;;;;;;;16.65;5.10;;;;;;;20.52;76.98;100758.91;1755845;81;25683;-53
2022/08/20 04:09:21;;;;;;;16.62;5.22;;;;;;;20.47;77.16;100754.05;1759230;81;25717;-52
2022/08/20 04:11:48;;;;;;;9.68;4.33;;;;;;;20.47;76.81;100760.05;1759187;80;26571;-52
2022/08/20 04:14:15;;;;;;;20.15;5.35;;;;;;;20.53;76.75;100760.60;1799770;78;25792;-53
2022/08/20 04:16:42;;;;;;;14.75;5.47;;;;;;;20.60;76.80;100762.84;1799704;79;28288;-52
2022/08/20 04:19:09;;;;;;;16.90;4.87;;;;;;;20.70;76.62;100767.09;1804022;78;25761;-55
2022/08/20 04:21:36;;;;;;;10.58;5.40;;;;;;;20.71;76.18;100772.87;1778600;80;25823;-54
2022/08/20 04:24:05;;;;;;;9.75;4.55;;;;;;;20.79;76.57;100768.13;1784960;79;25778;-54
2022/08/20 04:26:34;;;;;;;14.95;5.42;;;;;;;20.90;76.53;100764.45;1794943;79;25664;-55
2022/08/20 04:29:01;;;;;;;13.53;5.03;;;;;;;20.99;76.31;100770.06;1794759;79;27470;-54
2022/08/20 04:31:33;;;;;;;15.78;5.62;;;;;;;21.08;76.19;100772.10;1794994;79;25715;-55
2022/08/20 04:34:03;;;;;;;16.30;5.33;;;;;;;21.16;75.83;100773.28;1794606;78;25826;-53
2022/08/20 04:36:30;;;;;;;16.23;4.75;;;;;;;21.21;75.57;100773.48;1786602;80;25914;-54
2022/08/20 04:38:57;;;;;;;13.38;5.10;;;;;;;21.30;75.65;100779.63;1789097;79;25955;-55
2022/08/20 04:41:24;;;;;;;15.23;5.00;;;;;;;21.40;75.42;100777.84;1794220;78;27548;-54
2022/08/20 04:43:55;;;;;;;21.52;5.45;;;;;;;21.43;75.12;100781.55;1794110;80;25800;-54
2022/08/20 04:46:27;;;;;;;15.83;5.53;;;;;;;21.50;75.26;100782.39;1794181;79;25718;-56
2022/08/20 04:48:56;;;;;;;17.12;5.47;;;;;;;21.58;75.03;100784.95;1794457;78;25791;-55
2022/08/20 04:51:23;;;;;;;16.50;5.35;;;;;;;21.64;74.76;100786.02;1794361;78;25711;-54
2022/08/20 04:53:53;;;;;;;16.25;5.72;;;;;;;21.72;74.78;100783.07;1794186;80;27611;-55
2022/08/20 04:56:24;;;;;;;26.85;7.00;;;;;;;21.77;74.38;100785.18;1793985;78;25877;-55
2022/08/20 04:58:59;;;;;;;17.10;6.17;;;;;;;21.81;74.09;100785.09;1793725;79;25780;-55
2022/08/20 05:01:24;;;;;;;12.55;6.10;;;;;;;21.85;73.95;100784.97;1793020;79;25972;-54
2022/08/20 05:03:57;;;;;;;16.20;6.15;;;;;;;21.94;73.79;100786.12;1794239;79;25786;-53
2022/08/20 05:06:31;;;;;;;18.37;6.22;;;;;;;21.98;73.32;100790.13;1794367;78;27551;-54
2022/08/20 05:09:00;;;;;;;24.90;6.37;;;;;;;21.98;72.95;100787.39;1793970;80;25739;-55
2022/08/20 05:11:28;;;;;;;27.30;7.28;;;;;;;22.00;72.70;100789.41;1794395;79;25639;-52
2022/08/20 05:13:56;;;;;;;28.95;7.37;;;;;;;21.99;72.15;100787.72;1794019;78;26460;-55
2022/08/20 05:16:23;;;;;;;21.68;6.50;;;;;;;21.97;72.04;100784.34;1794306;79;25722;-51
2022/08/20 05:18:51;;;;;;;29.72;6.92;;;;;;;21.99;72.01;100783.06;1791557;79;27649;-55
2022/08/20 05:21:19;;;;;;;25.43;6.80;;;;;;;22.01;71.81;100778.73;1772505;80;25930;-54
2022/08/20 05:23:48;;;;;;;14.20;7.30;;;;;;;22.02;71.92;100775.80;1752537;79;25993;-54
2022/08/20 05:26:18;;;;;;;43.83;9.30;;;;;;;22.07;72.19;100779.28;1788582;79;26632;-55
2022/08/20 05:28:45;;;;;;;29.10;6.97;;;;;;;22.12;72.13;100783.58;1794719;79;25458;-55
2022/08/20 05:31:12;;;;;;;35.38;7.20;;;;;;;22.17;72.15;100787.91;1799420;78;27626;-54
2022/08/20 05:33:38;;;;;;;30.30;7.50;;;;;;;22.25;72.38;100790.11;1799422;78;26436;-55
2022/08/20 05:36:07;;;;;;;19.75;6.20;;;;;;;22.28;72.11;100784.17;1799459;79;25695;-55
2022/08/20 05:38:36;;;;;;;36.65;6.65;;;;;;;22.32;72.30;100784.91;1797182;79;25778;-55
2022/08/20 05:41:04;;;;;;;27.45;6.58;;;;;;;22.37;72.33;100787.00;1746848;81;25805;-56
2022/08/20 05:43:32;;;;;;;30.48;7.08;;;;;;;22.45;72.13;100791.45;1753382;81;27464;-53
2022/08/20 05:46:01;;;;;;;28.12;6.50;;;;;;;22.49;71.88;100786.70;1753115;81;26107;-55
2022/08/20 05:48:28;;;;;;;24.75;6.37;;;;;;;22.58;72.12;100785.09;1753223;81;25616;-55
2022/08/20 05:50:56;;;;;;;35.17;6.45;;;;;;;22.68;71.86;100790.97;1753891;81;25984;-55
2022/08/20 05:53:24;;;;;;;22.60;6.67;;;;;;;22.72;71.65;100785.38;1753417;81;25733;-55
2022/08/20 05:55:53;;;;;;;28.35;6.78;;;;;;;22.79;71.39;100781.22;1753686;81;27428;-55
2022/08/20 05:58:24;;;;;;;14.30;5.80;;;;;;;22.86;70.90;100780.66;1753331;81;25943;-54
2022/08/20 06:00:53;;;;;;;32.78;9.30;;;;;;;22.90;70.32;100783.83;1753482;81;25821;-55
2022/08/20 06:06:07;;;;;;;35.68;8.65;;;;;;;22.95;69.69;100772.48;1753396;81;25545;-55
2022/08/20 06:08:35;;;;;;;27.55;7.25;;;;;;;23.00;69.49;100779.23;1753249;81;27546;-54
2022/08/20 06:11:05;;;;;;;29.02;7.50;;;;;;;23.01;69.38;100776.80;1753572;81;25945;-55
2022/08/20 06:13:31;;;;;;;24.82;7.15;;;;;;;23.06;69.54;100776.46;1753173;81;25776;-55
2022/08/20 06:15:59;;;;;;;20.08;6.50;;;;;;;23.10;69.17;100773.57;1753385;81;26630;-55
2022/08/20 06:18:26;;;;;;;28.12;7.00;;;;;;;23.09;68.53;100777.38;1753333;81;25724;-54
2022/08/20 06:20:53;;;;;;;30.97;8.03;;;;;;;23.10;68.39;100774.12;1751005;81;27551;-55
2022/08/20 06:23:22;;;;;;;26.65;6.67;;;;;;;23.14;68.40;100771.23;1747941;81;25702;-55
2022/08/20 06:25:49;;;;;;;24.50;6.92;;;;;;;23.19;68.39;100771.45;1724208;83;25488;-56
2022/08/20 06:28:17;;;;;;;27.37;7.60;;;;;;;23.19;68.20;100776.95;1788303;80;25806;-55
2022/08/20 06:30:45;;;;;;;21.12;7.22;;;;;;;23.24;68.16;100774.38;1790246;80;25699;-55
2022/08/20 06:33:12;;;;;;;19.05;5.92;;;;;;;23.29;68.18;100774.56;1791660;80;27490;-54
2022/08/20 06:35:39;;;;;;;24.80;5.97;;;;;;;23.38;67.68;100773.75;1791731;79;25760;-55
2022/08/20 06:38:10;;;;;;;17.65;6.67;;;;;;;23.44;67.75;100769.28;1791548;79;26153;-55
2022/08/20 06:40:37;;;;;;;24.75;6.65;;;;;;;23.53;67.66;100772.07;1791975;80;26364;-50
2022/08/20 06:43:08;;;;;;;28.02;6.60;;;;;;;23.64;67.50;100769.13;1791862;79;25782;-53
2022/08/20 06:45:34;;;;;;;32.50;6.70;;;;;;;23.72;67.55;100768.02;1791620;79;27643;-54
2022/08/20 06:48:07;;;;;;;30.12;7.50;;;;;;;23.80;67.92;100766.91;1791686;80;25683;-53
2022/08/20 06:50:42;;;;;;;23.35;6.87;;;;;;;23.84;67.81;100768.98;1791852;80;25743;-52
2022/08/20 06:53:13;;;;;;;24.87;6.47;;;;;;;23.94;67.87;100769.02;1791473;79;25712;-55
2022/08/20 06:55:45;;;;;;;25.50;6.35;;;;;;;24.06;67.86;100769.45;1792029;80;25704;-55
2022/08/20 06:58:13;;;;;;;27.45;6.58;;;;;;;24.14;67.40;100767.47;1791993;79;27497;-55
2022/08/20 07:00:42;;;;;;;24.30;6.78;;;;;;;24.23;67.27;100772.44;1791987;79;25947;-55
2022/08/20 07:03:10;;;;;;;17.05;6.30;;;;;;;24.30;66.91;100775.64;1771676;80;25650;-55
2022/08/20 07:05:43;;;;;;;15.13;5.87;;;;;;;24.38;66.38;100776.19;1791792;79;25916;-55
2022/08/20 07:08:20;;;;;;;21.85;7.05;;;;;;;24.45;66.33;100773.89;1791824;79;25736;-55
2022/08/20 07:10:48;;;;;;;23.57;6.75;;;;;;;24.53;66.24;100767.56;1791830;79;27593;-53
2022/08/20 07:13:15;;;;;;;32.30;7.55;;;;;;;24.63;65.27;100770.31;1791953;79;25710;-54
2022/08/20 07:15:44;;;;;;;28.95;11.35;;;;;;;24.69;65.00;100774.92;1791727;79;25781;-54
2022/08/20 07:18:13;;;;;;;17.80;7.15;;;;;;;24.74;65.37;100770.10;1789687;79;25962;-55
2022/08/20 07:20:41;;;;;;;22.52;7.08;;;;;;;24.78;64.57;100767.21;1813556;77;25769;-55
2022/08/20 07:23:10;;;;;;;33.65;10.28;;;;;;;24.79;63.96;100766.11;1815947;77;27669;-57
2022/08/20 07:25:41;;;;;;;26.62;7.35;;;;;;;24.84;64.20;100766.27;1794828;79;25743;-55
2022/08/20 07:28:18;;;;;;;42.55;8.55;;;;;;;24.89;63.90;100765.03;1792860;80;25712;-54
2022/08/20 07:33:32;;;;;;;18.73;7.05;;;;;;;25.01;64.29;100765.11;1803556;79;25768;-55
2022/08/20 07:36:03;;;;;;;25.75;7.25;;;;;;;25.07;64.16;100766.06;1803625;79;28287;-54
2022/08/20 07:38:32;;;;;;;24.75;6.62;;;;;;;25.19;63.77;100768.34;1803333;79;25929;-55
2022/08/20 07:41:11;;;;;;;21.33;6.08;;;;;;;25.33;63.65;100765.40;1802656;79;37115;-55
2022/08/20 07:43:41;;;;;;;17.70;7.55;;;;;;;25.43;62.06;100761.55;1803458;79;25790;-56
2022/08/20 07:46:08;;;;;;;22.37;6.50;;;;;;;25.47;62.40;100763.59;1803610;79;25832;-55
2022/08/20 07:48:40;;;;;;;16.93;6.12;;;;;;;25.55;62.55;100762.97;1803335;79;28309;-56
2022/08/20 07:51:09;;;;;;;29.70;7.55;;;;;;;25.62;62.29;100763.70;1803273;79;25802;-56
2022/08/20 07:53:39;;;;;;;18.30;6.10;;;;;;;25.72;62.24;100765.86;1803338;79;26219;-56
2022/08/20 07:56:11;;;;;;;20.75;5.33;;;;;;;25.87;62.09;100759.33;1803797;79;25778;-57
2022/08/20 07:58:42;;;;;;;20.95;5.15;;;;;;;26.05;61.09;100761.14;1803509;79;25839;-55
2022/08/20 08:01:12;;;;;;;18.92;5.95;;;;;;;26.19;59.95;100759.02;1803274;79;27491;-55
2022/08/20 08:03:39;;;;;;;20.55;5.62;;;;;;;26.31;60.27;100760.38;1803211;79;25850;-55
2022/08/20 08:06:06;;;;;;;22.82;6.58;;;;;;;26.43;58.87;100754.84;1819412;76;25718;-53
2022/08/20 08:08:33;;;;;;;22.13;6.20;;;;;;;26.43;59.11;100750.70;1832809;78;25848;-55
2022/08/20 08:11:03;;;;;;;21.02;5.28;;;;;;;26.47;58.82;100756.56;1834112;78;25995;-54
2022/08/20 08:13:34;;;;;;;28.30;6.40;;;;;;;26.47;59.12;100742.25;1834095;78;27449;-56
2022/08/20 08:16:04;;;;;;;21.65;7.10;;;;;;;26.56;59.30;100739.94;1833932;77;25742;-56
2022/08/20 08:18:42;;;;;;;15.58;5.58;;;;;;;26.70;59.52;100742.73;1833833;78;25655;-55
2022/08/20 08:21:13;;;;;;;27.02;5.47;;;;;;;26.82;59.24;100738.58;1775945;80;26551;-55
2022/08/20 08:23:43;;;;;;;21.80;5.65;;;;;;;26.95;57.26;100735.20;1786789;79;25656;-56
2022/08/20 08:26:15;;;;;;;20.72;5.22;;;;;;;27.05;57.22;100727.12;1802534;78;27617;-56
2022/08/20 08:28:45;;;;;;;18.60;5.72;;;;;;;27.17;57.51;100729.30;1800245;79;32638;-56
2022/08/20 08:31:13;;;;;;;24.02;4.87;;;;;;;27.34;56.50;100732.06;1800133;78;26524;-56
2022/08/20 08:33:41;;;;;;;23.73;6.10;;;;;;;27.45;55.71;100733.66;1800084;79;25833;-56
2022/08/20 08:36:14;;;;;;;28.38;5.65;;;;;;;27.57;54.88;100728.89;1800242;78;25456;-57
2022/08/20 08:38:44;;;;;;;20.75;5.90;;;;;;;27.73;54.87;100733.28;1800388;78;27571;-56
2022/08/20 08:41:34;;;;;;;23.27;5.75;;;;;;;27.90;54.27;100731.89;1800125;79;25633;-56
2022/08/20 08:44:22;;;;;;;18.07;4.58;;;;;;;28.04;52.00;100733.20;1801106;78;25525;-54
2022/08/20 08:46:55;;;;;;;22.67;4.42;;;;;;;28.18;53.05;100730.94;1799890;78;26414;-55
2022/08/20 08:49:28;;;;;;;;;;;;;;;28.39;52.08;100726.52;1796429;77;25863;-55
2022/08/20 08:51:59;;;;;;;31.25;4.97;;;;;;;28.54;51.09;100720.90;1779719;79;27468;-55
2022/08/20 08:54:30;;;;;;;12.78;4.83;;;;;;;28.64;51.20;100729.33;1788191;79;25772;-55
2022/08/20 08:56:58;;;;;;;22.55;4.55;;;;;;;28.81;51.20;100731.20;1796992;79;25777;-55
2022/08/20 08:59:28;;;;;;;22.07;5.03;;;;;;;28.96;51.28;100726.36;1797350;79;26562;-56
2022/08/20 09:01:58;;;;;;;24.15;5.12;;;;;;;29.15;51.63;100724.89;1796867;79;25680;-54
2022/08/20 09:04:38;;;;;;;27.07;5.33;;;;;;;29.40;50.84;100717.97;1796738;79;28268;-55
2022/08/20 09:07:10;;;;;;;14.28;4.20;;;;;;;29.59;50.15;100718.39;1796764;78;25766;-56
2022/08/20 09:09:41;;;;;;;11.43;4.03;;;;;;;29.69;49.12;100715.41;1785040;77;25762;-57
2022/08/20 09:12:12;;;;;;;22.65;4.22;;;;;;;29.88;48.39;100718.05;1779787;80;25992;-55
2022/08/20 09:14:40;;;;;;;15.15;4.28;;;;;;;30.05;47.53;100715.11;1742024;82;25725;-55
2022/08/20 09:17:07;;;;;;;12.50;4.20;;;;;;;30.19;45.79;100717.41;1742134;82;27479;-55
2022/08/20 09:19:34;;;;;;;16.40;4.53;;;;;;;30.35;45.52;100712.22;1749960;81;25836;-55
2022/08/20 09:22:08;;;;;;;14.93;4.62;;;;;;;30.52;45.26;100708.42;1764143;81;25708;-55
2022/08/20 09:24:35;;;;;;;17.20;4.25;;;;;;;30.76;45.58;100714.34;1758582;81;25789;-55
2022/08/20 09:27:02;;;;;;;17.95;4.80;;;;;;;31.06;44.03;100707.19;1753521;81;25792;-55
2022/08/20 09:29:31;;;;;;;17.87;4.33;;;;;;;31.36;44.02;100704.16;1752805;81;27461;-56
2022/08/20 09:32:18;;;;;;;21.65;4.58;;;;;;;31.74;44.31;100701.94;1753412;81;25704;-56
2022/08/20 09:34:50;;;;;;;18.25;4.62;;;;;;;32.08;41.86;100703.27;1752528;81;25739;-56
2022/08/20 09:37:17;;;;;;;19.95;3.80;;;;;;;32.44;41.52;100710.11;1765534;81;34618;-55
2022/08/20 09:39:44;;;;;;;15.48;4.62;;;;;;;32.82;41.23;100700.73;1765506;81;25793;-56
2022/08/20 09:42:19;;;;;;;16.97;3.90;;;;;;;33.44;39.04;100706.44;1765511;81;27474;-55
2022/08/20 09:44:47;;;;;;;19.48;4.12;;;;;;;33.96;39.00;100700.65;1767136;80;26107;-55
2022/08/20 09:47:16;;;;;;;14.87;4.35;;;;;;;34.66;37.62;100698.97;1767655;81;25727;-56
2022/08/20 09:49:45;;;;;;;31.82;4.05;;;;;;;35.30;37.40;100688.79;1767483;80;26861;-55
2022/08/20 09:52:20;;;;;;;24.20;3.42;;;;;;;35.91;36.06;100688.85;1767383;81;26426;-55
2022/08/20 09:54:47;;;;;;;32.53;4.12;;;;;;;36.46;35.31;100680.45;1750863;81;27599;-55
2022/08/20 09:57:15;;;;;;;17.45;3.72;;;;;;;37.02;33.55;100685.92;1770881;80;25835;-56
2022/08/20 09:59:42;;;;;;;16.95;3.27;;;;;;;37.41;33.58;100680.20;1771351;81;25803;-56
2022/08/20 10:02:09;;;;;;;9.65;3.52;;;;;;;37.75;31.90;100675.08;1771139;81;25839;-55
2022/08/20 10:04:36;;;;;;;10.55;3.52;;;;;;;38.07;31.93;100670.84;1771287;80;25757;-57
2022/08/20 10:07:07;;;;;;;25.97;3.98;;;;;;;38.51;31.14;100668.98;1756972;79;27585;-55
2022/08/20 10:09:36;;;;;;;13.68;4.40;;;;;;;38.97;30.92;100668.13;1743016;79;25875;-56
2022/08/20 10:12:04;;;;;;;19.80;3.90;;;;;;;39.25;29.99;100664.97;1761411;80;25901;-56
2022/08/20 10:14:31;;;;;;;14.33;3.50;;;;;;;39.26;29.16;100665.22;1774095;80;26774;-55
2022/08/20 10:17:00;;;;;;;18.48;3.72;;;;;;;39.54;29.74;100658.59;1773996;80;25465;-56
2022/08/20 10:19:29;;;;;;;14.73;3.45;;;;;;;39.99;29.10;100656.43;1781754;79;27503;-55
2022/08/20 10:21:57;;;;;;;19.67;3.60;;;;;;;40.28;28.06;100663.26;1756073;81;25649;-56
2022/08/20 10:24:24;;;;;;;12.82;3.00;;;;;;;40.52;28.15;100664.81;1777020;79;25793;-56
2022/08/20 10:26:57;;;;;;;10.05;3.00;;;;;;;40.77;27.19;100659.33;1794137;80;25853;-56
2022/08/20 10:29:26;;;;;;;15.85;3.50;;;;;;;40.99;25.96;100658.73;1794548;78;25711;-56
2022/08/20 10:31:55;;;;;;;13.35;3.20;;;;;;;41.13;25.83;100655.03;1794413;78;27453;-56
2022/08/20 10:34:24;;;;;;;8.33;3.52;;;;;;;41.38;26.16;100646.62;1794275;78;25761;-56
2022/08/20 10:36:51;;;;;;;15.03;3.60;;;;;;;41.31;24.98;100633.67;1794612;79;25496;-56
2022/08/20 10:39:18;;;;;;;16.62;3.42;;;;;;;41.13;23.60;100640.11;1794214;79;25985;-57
2022/08/20 10:41:45;;;;;;;9.45;2.75;;;;;;;40.55;24.88;100636.52;1794143;79;25703;-57
2022/08/20 10:44:12;;;;;;;14.05;3.33;;;;;;;40.58;24.86;100637.81;1794304;78;28279;-57
2022/08/20 10:46:38;;;;;;;9.00;2.92;;;;;;;40.50;25.07;100639.55;1794280;79;25505;-56
2022/08/20 10:49:05;;;;;;;12.58;3.65;;;;;;;40.76;24.49;100632.89;1794134;80;25664;-56
2022/08/20 10:51:33;;;;;;;9.18;2.70;;;;;;;40.68;25.05;100632.63;1794267;80;25785;-56
2022/08/20 10:54:00;;;;;;;12.00;3.27;;;;;;;40.61;24.31;100628.71;1794129;80;25861;-56
2022/08/20 10:56:27;;;;;;;11.68;3.10;;;;;;;40.45;25.89;100631.28;1794465;78;27651;-57
2022/08/20 10:58:54;;;;;;;11.57;2.85;;;;;;;40.69;24.76;100632.03;1794155;79;25919;-56
2022/08/20 11:01:21;;;;;;;15.13;3.00;;;;;;;40.70;25.14;100631.47;1794416;78;25701;-56
2022/08/20 11:03:48;;;;;;;12.65;3.45;;;;;;;40.92;25.50;100621.80;1794299;79;27071;-56
2022/08/20 11:06:15;;;;;;;18.15;3.25;;;;;;;41.59;24.56;100614.12;1794288;78;26475;-56
2022/08/20 11:08:41;;;;;;;16.10;3.47;;;;;;;41.71;22.99;100616.12;1794241;78;27552;-57
2022/08/20 11:11:08;;;;;;;9.50;3.02;;;;;;;41.45;23.22;100610.20;1794267;78;25775;-56
2022/08/20 11:13:35;;;;;;;13.28;3.20;;;;;;;41.15;22.70;100604.73;1794457;80;25707;-57
2022/08/20 11:16:03;;;;;;;13.38;3.27;;;;;;;41.15;23.00;100597.67;1794724;79;26762;-56
2022/08/20 11:18:31;;;;;;;9.13;3.20;;;;;;;40.95;23.72;100605.00;1794294;80;25680;-56
2022/08/20 11:20:59;;;;;;;16.42;3.87;;;;;;;40.95;24.08;100604.16;1778704;80;27538;-57
2022/08/20 11:23:26;;;;;;;14.45;3.08;;;;;;;41.03;24.02;100598.20;1740341;80;25717;-56
2022/08/20 11:25:54;;;;;;;12.90;3.10;;;;;;;41.05;23.28;100593.08;1739943;81;25743;-57
2022/08/20 11:28:21;;;;;;;10.78;3.00;;;;;;;40.88;23.36;100608.14;1734901;82;26363;-56
2022/08/20 11:30:48;;;;;;;15.70;3.00;;;;;;;40.80;23.33;100590.97;1734731;82;25781;-56
2022/08/20 11:33:16;;;;;;;10.98;3.10;;;;;;;40.94;22.47;100592.64;1734846;81;27518;-57